Tampa, Florida
Current Conditions -  °F | °C
As of 6:53 AM on Monday 26 Jan 2015 (Local Time) from KTPA Reporting Station
Broken Clouds Broken Clouds  
Wind Chill: 16°   Ceiling: 10000
Heat Index: 16°   Visibility: 10mi
Dew Point: 13°   Wind: 3mph
Humidity: 86%   Direction: 300°WNW
Pressure: 29.88"   Gusts: NA
Location:  27.95°N, 82.46°W
Report Text: KTPA 261153Z 30003KT 10SM FEW026 SCT055 BKN100 16/13 A2988 RMK AO2 RAE31 SLP118 P0001 60027 70027 T01560133 10183 20150 53008
Loading
Personal Weather Stations






























Interactive Weather Map New forecast layout! Learn more

10-Day Weather Forecast

Advertisements
Track Severe Weather on mobile